sensor_id;sensor_type;location;lat;lon;timestamp;pressure;altitude;pressure_sealevel;temperature;humidity
52319;BME280;38258;51.148;14.068;2023-04-24T00:02:22;97055.13;;;7.74;100.00
52319;BME280;38258;51.148;14.068;2023-04-24T00:04:49;97008.25;;;7.52;100.00
52319;BME280;38258;51.148;14.068;2023-04-24T00:07:16;97007.66;;;7.67;100.00
52319;BME280;38258;51.148;14.068;2023-04-24T00:09:47;97122.44;;;8.29;100.00
52319;BME280;38258;51.148;14.068;2023-04-24T00:12:18;96943.06;;;7.10;100.00
52319;BME280;38258;51.148;14.068;2023-04-24T00:14:45;97127.44;;;8.58;100.00
52319;BME280;38258;51.148;14.068;2023-04-24T00:17:11;97079.66;;;8.35;100.00
52319;BME280;38258;51.148;14.068;2023-04-24T00:19:38;96904.72;;;7.38;100.00
52319;BME280;38258;51.148;14.068;2023-04-24T00:22:05;96941.94;;;8.05;100.00
52319;BME280;38258;51.148;14.068;2023-04-24T00:24:35;96972.56;;;8.20;100.00
52319;BME280;38258;51.148;14.068;2023-04-24T00:27:09;97013.25;;;8.66;100.00
52319;BME280;38258;51.148;14.068;2023-04-24T00:29:37;97003.50;;;8.71;100.00
52319;BME280;38258;51.148;14.068;2023-04-24T00:32:07;97022.66;;;8.70;100.00
52319;BME280;38258;51.148;14.068;2023-04-24T00:34:34;97089.09;;;9.22;100.00
52319;BME280;38258;51.148;14.068;2023-04-24T00:37:01;96946.25;;;8.47;100.00
52319;BME280;38258;51.148;14.068;2023-04-24T00:39:28;96936.84;;;8.66;100.00
52319;BME280;38258;51.148;14.068;2023-04-24T00:41:55;97012.19;;;9.12;100.00
52319;BME280;38258;51.148;14.068;2023-04-24T00:44:23;96906.34;;;8.47;100.00
52319;BME280;38258;51.148;14.068;2023-04-24T00:47:07;96893.94;;;8.54;100.00
52319;BME280;38258;51.148;14.068;2023-04-24T00:49:35;96915.59;;;8.54;100.00
52319;BME280;38258;51.148;14.068;2023-04-24T00:52:04;96903.28;;;8.58;100.00
52319;BME280;38258;51.148;14.068;2023-04-24T00:54:33;96938.66;;;8.63;100.00
52319;BME280;38258;51.148;14.068;2023-04-24T00:57:01;97121.91;;;9.68;100.00
52319;BME280;38258;51.148;14.068;2023-04-24T00:59:29;96986.81;;;8.75;100.00
52319;BME280;38258;51.148;14.068;2023-04-24T01:01:56;97084.63;;;9.05;100.00
52319;BME280;38258;51.148;14.068;2023-04-24T01:04:28;97038.31;;;8.70;100.00
52319;BME280;38258;51.148;14.068;2023-04-24T01:06:57;96973.44;;;8.21;100.00
52319;BME280;38258;51.148;14.068;2023-04-24T01:09:25;97118.91;;;9.37;100.00
52319;BME280;38258;51.148;14.068;2023-04-24T01:11:52;97086.25;;;9.28;100.00
52319;BME280;38258;51.148;14.068;2023-04-24T01:14:20;96988.25;;;8.83;100.00
52319;BME280;38258;51.148;14.068;2023-04-24T01:16:49;97022.63;;;9.31;100.00
52319;BME280;38258;51.148;14.068;2023-04-24T01:19:16;96953.38;;;9.04;100.00
52319;BME280;38258;51.148;14.068;2023-04-24T01:21:50;96999.50;;;9.42;100.00
52319;BME280;38258;51.148;14.068;2023-04-24T01:24:22;97058.47;;;9.66;100.00
52319;BME280;38258;51.148;14.068;2023-04-24T01:26:51;96969.59;;;9.30;100.00
52319;BME280;38258;51.148;14.068;2023-04-24T01:29:18;97037.78;;;9.61;100.00
52319;BME280;38258;51.148;14.068;2023-04-24T01:31:45;96932.00;;;8.96;100.00
52319;BME280;38258;51.148;14.068;2023-04-24T01:34:14;96969.09;;;9.22;100.00
52319;BME280;38258;51.148;14.068;2023-04-24T01:36:43;96982.84;;;9.26;100.00
52319;BME280;38258;51.148;14.068;2023-04-24T01:39:12;97080.47;;;9.98;100.00
52319;BME280;38258;51.148;14.068;2023-04-24T01:41:40;97051.50;;;9.85;100.00
52319;BME280;38258;51.148;14.068;2023-04-24T01:44:10;97038.34;;;9.68;100.00
52319;BME280;38258;51.148;14.068;2023-04-24T01:46:38;97085.56;;;10.01;100.00
52319;BME280;38258;51.148;14.068;2023-04-24T01:49:05;97087.91;;;9.88;100.00
52319;BME280;38258;51.148;14.068;2023-04-24T01:51:32;97091.06;;;9.95;100.00
52319;BME280;38258;51.148;14.068;2023-04-24T01:53:59;97012.03;;;9.53;100.00
52319;BME280;38258;51.148;14.068;2023-04-24T01:56:28;97035.13;;;9.62;100.00
52319;BME280;38258;51.148;14.068;2023-04-24T01:58:57;97059.16;;;9.88;100.00
52319;BME280;38258;51.148;14.068;2023-04-24T02:01:25;96970.28;;;9.53;100.00
52319;BME280;38258;51.148;14.068;2023-04-24T02:03:54;96967.19;;;9.45;100.00
52319;BME280;38258;51.148;14.068;2023-04-24T02:06:21;96937.03;;;9.20;100.00
52319;BME280;38258;51.148;14.068;2023-04-24T02:08:54;96920.78;;;8.94;100.00
52319;BME280;38258;51.148;14.068;2023-04-24T02:11:21;97013.31;;;9.64;100.00
52319;BME280;38258;51.148;14.068;2023-04-24T02:13:48;97040.19;;;9.66;100.00
52319;BME280;38258;51.148;14.068;2023-04-24T02:16:17;96908.53;;;8.96;100.00
52319;BME280;38258;51.148;14.068;2023-04-24T02:18:44;96968.19;;;9.23;100.00
52319;BME280;38258;51.148;14.068;2023-04-24T02:21:11;97034.66;;;9.54;100.00
52319;BME280;38258;51.148;14.068;2023-04-24T02:23:38;97053.13;;;9.69;100.00
52319;BME280;38258;51.148;14.068;2023-04-24T02:26:05;97089.28;;;9.96;100.00
52319;BME280;38258;51.148;14.068;2023-04-24T02:28:32;97019.31;;;9.46;100.00
52319;BME280;38258;51.148;14.068;2023-04-24T02:31:02;97024.81;;;9.79;100.00
52319;BME280;38258;51.148;14.068;2023-04-24T02:33:30;96928.19;;;8.84;100.00
52319;BME280;38258;51.148;14.068;2023-04-24T02:36:02;96981.56;;;9.15;100.00
52319;BME280;38258;51.148;14.068;2023-04-24T02:38:29;96891.41;;;8.71;100.00
52319;BME280;38258;51.148;14.068;2023-04-24T02:40:56;96919.53;;;8.84;100.00
52319;BME280;38258;51.148;14.068;2023-04-24T02:43:26;97011.19;;;9.33;100.00
52319;BME280;38258;51.148;14.068;2023-04-24T02:49:51;97004.59;;;9.26;100.00
52319;BME280;38258;51.148;14.068;2023-04-24T02:52:18;96948.47;;;8.77;100.00
52319;BME280;38258;51.148;14.068;2023-04-24T02:54:45;96944.56;;;8.67;100.00
52319;BME280;38258;51.148;14.068;2023-04-24T02:57:12;96957.03;;;9.00;100.00
52319;BME280;38258;51.148;14.068;2023-04-24T02:59:41;96903.53;;;8.72;100.00
52319;BME280;38258;51.148;14.068;2023-04-24T03:02:09;97008.38;;;9.19;100.00
52319;BME280;38258;51.148;14.068;2023-04-24T03:04:39;96985.97;;;9.15;100.00
52319;BME280;38258;51.148;14.068;2023-04-24T03:07:09;97086.78;;;9.75;100.00
52319;BME280;38258;51.148;14.068;2023-04-24T03:09:36;97017.69;;;9.44;100.00
52319;BME280;38258;51.148;14.068;2023-04-24T03:12:03;97023.34;;;9.34;100.00
52319;BME280;38258;51.148;14.068;2023-04-24T03:14:30;96894.22;;;8.67;100.00
52319;BME280;38258;51.148;14.068;2023-04-24T03:16:57;97065.69;;;9.80;100.00
52319;BME280;38258;51.148;14.068;2023-04-24T03:19:24;96887.38;;;8.64;100.00
52319;BME280;38258;51.148;14.068;2023-04-24T03:22:02;97023.91;;;9.41;100.00
52319;BME280;38258;51.148;14.068;2023-04-24T03:24:32;97028.75;;;9.49;100.00
52319;BME280;38258;51.148;14.068;2023-04-24T03:27:02;96969.50;;;8.94;100.00
52319;BME280;38258;51.148;14.068;2023-04-24T03:29:46;97087.28;;;9.83;100.00
52319;BME280;38258;51.148;14.068;2023-04-24T03:32:15;97072.66;;;9.98;100.00
52319;BME280;38258;51.148;14.068;2023-04-24T03:34:42;97070.19;;;9.95;100.00
52319;BME280;38258;51.148;14.068;2023-04-24T03:37:10;96949.44;;;9.15;100.00
52319;BME280;38258;51.148;14.068;2023-04-24T03:39:43;96827.56;;;8.61;100.00
52319;BME280;38258;51.148;14.068;2023-04-24T03:42:10;96971.00;;;9.38;100.00
52319;BME280;38258;51.148;14.068;2023-04-24T03:44:48;97030.09;;;9.77;100.00
52319;BME280;38258;51.148;14.068;2023-04-24T03:47:15;97078.22;;;9.90;100.00
52319;BME280;38258;51.148;14.068;2023-04-24T03:49:44;97004.00;;;9.39;100.00
52319;BME280;38258;51.148;14.068;2023-04-24T03:52:11;97011.16;;;9.35;100.00
52319;BME280;38258;51.148;14.068;2023-04-24T03:54:38;97019.81;;;9.36;100.00
52319;BME280;38258;51.148;14.068;2023-04-24T03:57:07;96969.38;;;8.97;100.00
52319;BME280;38258;51.148;14.068;2023-04-24T03:59:36;97035.31;;;9.19;100.00
52319;BME280;38258;51.148;14.068;2023-04-24T04:02:15;97022.69;;;9.10;100.00
52319;BME280;38258;51.148;14.068;2023-04-24T04:04:42;96979.56;;;8.82;100.00
52319;BME280;38258;51.148;14.068;2023-04-24T04:07:09;96984.91;;;8.79;100.00
52319;BME280;38258;51.148;14.068;2023-04-24T04:09:37;96960.69;;;8.56;100.00
52319;BME280;38258;51.148;14.068;2023-04-24T04:12:04;97113.00;;;9.53;100.00
52319;BME280;38258;51.148;14.068;2023-04-24T04:14:33;96947.03;;;8.49;100.00
52319;BME280;38258;51.148;14.068;2023-04-24T04:17:01;97088.88;;;9.47;100.00
52319;BME280;38258;51.148;14.068;2023-04-24T04:19:28;96907.31;;;8.44;100.00
52319;BME280;38258;51.148;14.068;2023-04-24T04:21:55;97011.03;;;9.17;100.00
52319;BME280;38258;51.148;14.068;2023-04-24T04:24:40;97124.81;;;10.00;100.00
52319;BME280;38258;51.148;14.068;2023-04-24T04:27:08;97134.25;;;10.02;100.00
52319;BME280;38258;51.148;14.068;2023-04-24T04:29:44;96981.66;;;9.14;100.00
52319;BME280;38258;51.148;14.068;2023-04-24T04:32:13;97082.47;;;9.93;100.00
52319;BME280;38258;51.148;14.068;2023-04-24T04:34:41;96996.16;;;9.39;100.00
52319;BME280;38258;51.148;14.068;2023-04-24T04:37:10;97128.09;;;10.23;100.00
52319;BME280;38258;51.148;14.068;2023-04-24T04:39:47;97029.84;;;9.83;100.00
52319;BME280;38258;51.148;14.068;2023-04-24T04:42:20;96989.97;;;9.60;100.00
52319;BME280;38258;51.148;14.068;2023-04-24T04:44:50;97045.03;;;10.12;100.00
52319;BME280;38258;51.148;14.068;2023-04-24T04:47:22;97092.44;;;10.41;100.00
52319;BME280;38258;51.148;14.068;2023-04-24T04:49:50;97113.69;;;10.70;100.00
52319;BME280;38258;51.148;14.068;2023-04-24T04:52:21;97066.09;;;10.45;100.00
52319;BME280;38258;51.148;14.068;2023-04-24T04:54:53;97035.66;;;10.25;100.00
52319;BME280;38258;51.148;14.068;2023-04-24T04:57:22;96988.28;;;9.96;100.00
52319;BME280;38258;51.148;14.068;2023-04-24T04:59:51;97005.97;;;10.09;100.00
52319;BME280;38258;51.148;14.068;2023-04-24T05:02:30;97088.25;;;10.73;100.00
52319;BME280;38258;51.148;14.068;2023-04-24T05:04:57;96936.81;;;9.81;100.00
52319;BME280;38258;51.148;14.068;2023-04-24T05:07:24;97133.19;;;10.99;100.00
52319;BME280;38258;51.148;14.068;2023-04-24T05:09:54;97031.50;;;10.58;100.00
52319;BME280;38258;51.148;14.068;2023-04-24T05:12:21;97022.41;;;10.48;100.00
52319;BME280;38258;51.148;14.068;2023-04-24T05:14:53;97012.19;;;10.43;100.00
52319;BME280;38258;51.148;14.068;2023-04-24T05:17:19;97119.22;;;11.34;100.00
52319;BME280;38258;51.148;14.068;2023-04-24T05:19:48;96943.34;;;10.25;100.00
52319;BME280;38258;51.148;14.068;2023-04-24T05:22:16;97068.19;;;10.92;100.00
52319;BME280;38258;51.148;14.068;2023-04-24T05:24:48;97046.25;;;10.77;100.00
52319;BME280;38258;51.148;14.068;2023-04-24T05:27:35;97022.94;;;10.72;100.00
52319;BME280;38258;51.148;14.068;2023-04-24T05:30:09;97014.78;;;10.60;100.00
52319;BME280;38258;51.148;14.068;2023-04-24T05:32:43;97133.16;;;11.35;100.00
52319;BME280;38258;51.148;14.068;2023-04-24T05:35:10;97062.91;;;11.09;100.00
52319;BME280;38258;51.148;14.068;2023-04-24T05:37:40;97061.38;;;11.05;100.00
52319;BME280;38258;51.148;14.068;2023-04-24T05:40:09;97131.25;;;11.54;100.00
52319;BME280;38258;51.148;14.068;2023-04-24T05:42:41;97032.38;;;10.92;100.00
52319;BME280;38258;51.148;14.068;2023-04-24T05:45:29;97054.72;;;11.15;100.00
52319;BME280;38258;51.148;14.068;2023-04-24T05:48:13;97004.16;;;10.81;100.00
52319;BME280;38258;51.148;14.068;2023-04-24T05:52:10;97021.09;;;10.92;100.00
52319;BME280;38258;51.148;14.068;2023-04-24T05:55:08;96961.81;;;10.57;100.00
52319;BME280;38258;51.148;14.068;2023-04-24T05:58:16;96933.69;;;10.44;100.00
52319;BME280;38258;51.148;14.068;2023-04-24T06:01:28;97137.91;;;11.78;100.00
52319;BME280;38258;51.148;14.068;2023-04-24T06:04:25;97060.59;;;11.21;100.00
52319;BME280;38258;51.148;14.068;2023-04-24T06:07:43;97136.88;;;11.80;100.00
52319;BME280;38258;51.148;14.068;2023-04-24T06:10:41;97045.84;;;11.36;100.00
52319;BME280;38258;51.148;14.068;2023-04-24T06:14:09;97067.28;;;11.42;100.00
52319;BME280;38258;51.148;14.068;2023-04-24T06:20:50;96987.84;;;11.10;100.00
52319;BME280;38258;51.148;14.068;2023-04-24T06:23:25;97115.03;;;11.97;100.00
52319;BME280;38258;51.148;14.068;2023-04-24T06:26:00;96992.53;;;11.21;100.00
52319;BME280;38258;51.148;14.068;2023-04-24T06:28:45;96975.13;;;11.03;100.00
52319;BME280;38258;51.148;14.068;2023-04-24T06:31:18;97021.28;;;11.54;100.00
52319;BME280;38258;51.148;14.068;2023-04-24T06:33:47;96948.94;;;11.03;100.00
52319;BME280;38258;51.148;14.068;2023-04-24T06:36:24;96980.28;;;11.21;100.00
52319;BME280;38258;51.148;14.068;2023-04-24T06:38:51;97073.16;;;11.64;100.00
52319;BME280;38258;51.148;14.068;2023-04-24T06:41:18;97068.50;;;11.69;100.00
52319;BME280;38258;51.148;14.068;2023-04-24T06:43:57;97139.75;;;12.41;100.00
52319;BME280;38258;51.148;14.068;2023-04-24T06:46:44;97144.56;;;12.49;100.00
52319;BME280;38258;51.148;14.068;2023-04-24T07:10:42;97156.44;;;13.32;100.00
52319;BME280;38258;51.148;14.068;2023-04-24T07:13:32;97000.41;;;12.01;100.00
52319;BME280;38258;51.148;14.068;2023-04-24T07:16:29;97162.50;;;12.87;100.00
52319;BME280;38258;51.148;14.068;2023-04-24T07:19:00;97070.31;;;12.33;100.00
52319;BME280;38258;51.148;14.068;2023-04-24T07:22:53;97132.84;;;12.71;100.00
52319;BME280;38258;51.148;14.068;2023-04-24T07:25:12;97045.31;;;12.11;100.00
52319;BME280;38258;51.148;14.068;2023-04-24T07:27:45;97175.13;;;12.97;100.00
52319;BME280;38258;51.148;14.068;2023-04-24T07:31:03;97044.97;;;12.17;100.00
52319;BME280;38258;51.148;14.068;2023-04-24T07:33:32;96972.47;;;11.85;100.00
52319;BME280;38258;51.148;14.068;2023-04-24T07:37:17;97107.81;;;12.65;100.00
52319;BME280;38258;51.148;14.068;2023-04-24T07:39:36;96976.03;;;12.31;100.00
52319;BME280;38258;51.148;14.068;2023-04-24T07:42:14;97055.38;;;12.80;100.00
52319;BME280;38258;51.148;14.068;2023-04-24T07:44:41;97054.38;;;12.52;100.00
52319;BME280;38258;51.148;14.068;2023-04-24T07:47:10;97093.94;;;12.94;100.00
52319;BME280;38258;51.148;14.068;2023-04-24T07:49:38;97045.00;;;12.48;100.00
52319;BME280;38258;51.148;14.068;2023-04-24T07:52:04;97041.13;;;12.39;100.00
52319;BME280;38258;51.148;14.068;2023-04-24T07:54:34;97093.56;;;13.00;100.00
52319;BME280;38258;51.148;14.068;2023-04-24T07:57:06;96981.38;;;12.44;100.00
52319;BME280;38258;51.148;14.068;2023-04-24T07:59:33;97112.38;;;13.23;100.00
52319;BME280;38258;51.148;14.068;2023-04-24T08:02:03;97142.09;;;13.38;100.00
52319;BME280;38258;51.148;14.068;2023-04-24T08:04:31;97106.25;;;13.22;100.00
52319;BME280;38258;51.148;14.068;2023-04-24T08:06:58;97176.63;;;13.32;100.00
52319;BME280;38258;51.148;14.068;2023-04-24T08:09:25;97173.50;;;13.55;100.00
52319;BME280;38258;51.148;14.068;2023-04-24T08:11:57;97152.78;;;13.65;100.00
52319;BME280;38258;51.148;14.068;2023-04-24T08:14:26;97093.03;;;13.09;100.00
52319;BME280;38258;51.148;14.068;2023-04-24T08:16:55;97065.75;;;13.26;100.00
52319;BME280;38258;51.148;14.068;2023-04-24T08:19:22;97179.81;;;13.96;100.00
52319;BME280;38258;51.148;14.068;2023-04-24T08:21:50;97102.88;;;13.20;100.00
52319;BME280;38258;51.148;14.068;2023-04-24T08:24:24;97021.72;;;12.72;100.00
52319;BME280;38258;51.148;14.068;2023-04-24T08:26:55;97180.47;;;13.71;100.00
52319;BME280;38258;51.148;14.068;2023-04-24T08:29:33;97071.00;;;13.12;100.00
52319;BME280;38258;51.148;14.068;2023-04-24T08:32:00;97057.53;;;13.33;100.00
52319;BME280;38258;51.148;14.068;2023-04-24T08:34:27;97131.69;;;14.23;100.00
52319;BME280;38258;51.148;14.068;2023-04-24T08:37:19;97195.56;;;14.25;100.00
52319;BME280;38258;51.148;14.068;2023-04-24T08:39:53;97154.94;;;14.02;100.00
52319;BME280;38258;51.148;14.068;2023-04-24T08:42:28;97123.41;;;13.88;100.00
52319;BME280;38258;51.148;14.068;2023-04-24T08:45:00;97174.09;;;14.46;100.00
52319;BME280;38258;51.148;14.068;2023-04-24T08:47:28;97174.88;;;14.19;100.00
52319;BME280;38258;51.148;14.068;2023-04-24T08:49:56;97173.34;;;14.02;100.00
52319;BME280;38258;51.148;14.068;2023-04-24T08:52:25;97174.16;;;13.74;100.00
52319;BME280;38258;51.148;14.068;2023-04-24T08:54:53;97175.31;;;13.39;100.00
52319;BME280;38258;51.148;14.068;2023-04-24T08:57:21;97177.69;;;13.43;100.00
52319;BME280;38258;51.148;14.068;2023-04-24T08:59:48;97182.09;;;13.43;100.00
52319;BME280;38258;51.148;14.068;2023-04-24T09:02:17;97182.88;;;13.45;100.00
52319;BME280;38258;51.148;14.068;2023-04-24T09:04:45;97182.56;;;13.35;100.00
52319;BME280;38258;51.148;14.068;2023-04-24T09:07:14;97164.50;;;13.45;100.00
52319;BME280;38258;51.148;14.068;2023-04-24T09:09:41;97171.06;;;13.52;100.00
52319;BME280;38258;51.148;14.068;2023-04-24T09:12:08;97179.53;;;13.57;100.00
52319;BME280;38258;51.148;14.068;2023-04-24T09:14:36;97165.03;;;13.20;100.00
52319;BME280;38258;51.148;14.068;2023-04-24T09:17:04;97182.13;;;12.66;100.00
52319;BME280;38258;51.148;14.068;2023-04-24T09:19:33;97191.25;;;11.93;100.00
52319;BME280;38258;51.148;14.068;2023-04-24T09:22:04;97201.81;;;11.57;100.00
52319;BME280;38258;51.148;14.068;2023-04-24T09:24:31;97185.22;;;11.41;100.00
52319;BME280;38258;51.148;14.068;2023-04-24T09:26:58;97188.72;;;11.40;100.00
52319;BME280;38258;51.148;14.068;2023-04-24T09:29:27;97185.34;;;11.55;100.00
52319;BME280;38258;51.148;14.068;2023-04-24T09:31:54;97194.97;;;11.37;100.00
52319;BME280;38258;51.148;14.068;2023-04-24T09:34:21;97203.06;;;11.15;100.00
52319;BME280;38258;51.148;14.068;2023-04-24T09:36:50;97190.41;;;10.88;100.00
52319;BME280;38258;51.148;14.068;2023-04-24T09:39:17;97169.50;;;10.88;100.00
52319;BME280;38258;51.148;14.068;2023-04-24T09:41:46;97181.06;;;11.19;100.00
52319;BME280;38258;51.148;14.068;2023-04-24T09:44:14;97161.94;;;11.35;100.00
52319;BME280;38258;51.148;14.068;2023-04-24T09:46:42;97169.47;;;11.92;100.00
52319;BME280;38258;51.148;14.068;2023-04-24T09:49:12;97136.28;;;11.75;100.00
52319;BME280;38258;51.148;14.068;2023-04-24T09:51:39;97168.31;;;12.14;100.00
52319;BME280;38258;51.148;14.068;2023-04-24T09:54:14;97182.28;;;12.14;100.00
52319;BME280;38258;51.148;14.068;2023-04-24T09:56:42;97187.00;;;12.24;100.00
52319;BME280;38258;51.148;14.068;2023-04-24T09:59:10;97188.38;;;12.31;100.00
52319;BME280;38258;51.148;14.068;2023-04-24T10:01:36;97191.50;;;12.22;100.00
52319;BME280;38258;51.148;14.068;2023-04-24T10:04:15;97197.25;;;12.28;100.00
52319;BME280;38258;51.148;14.068;2023-04-24T10:06:42;97184.63;;;12.19;100.00
52319;BME280;38258;51.148;14.068;2023-04-24T10:09:09;97188.28;;;12.33;100.00
52319;BME280;38258;51.148;14.068;2023-04-24T10:11:41;97190.66;;;12.37;100.00
52319;BME280;38258;51.148;14.068;2023-04-24T10:14:09;97188.78;;;12.07;100.00
52319;BME280;38258;51.148;14.068;2023-04-24T10:16:38;97195.53;;;12.11;100.00
52319;BME280;38258;51.148;14.068;2023-04-24T10:19:06;97192.13;;;11.93;100.00
52319;BME280;38258;51.148;14.068;2023-04-24T10:21:34;97175.69;;;12.07;100.00
52319;BME280;38258;51.148;14.068;2023-04-24T10:24:01;97173.41;;;12.17;100.00
52319;BME280;38258;51.148;14.068;2023-04-24T10:26:29;97174.44;;;12.14;100.00
52319;BME280;38258;51.148;14.068;2023-04-24T10:28:57;97187.41;;;12.00;100.00
52319;BME280;38258;51.148;14.068;2023-04-24T10:31:25;97187.63;;;12.29;100.00
52319;BME280;38258;51.148;14.068;2023-04-24T10:33:53;97191.25;;;12.26;100.00
52319;BME280;38258;51.148;14.068;2023-04-24T10:36:22;97183.66;;;12.38;100.00
52319;BME280;38258;51.148;14.068;2023-04-24T10:38:52;97187.69;;;12.76;100.00
52319;BME280;38258;51.148;14.068;2023-04-24T10:41:25;97192.31;;;12.86;100.00
52319;BME280;38258;51.148;14.068;2023-04-24T10:44:05;97181.75;;;12.88;100.00
52319;BME280;38258;51.148;14.068;2023-04-24T10:46:32;97177.44;;;12.87;100.00
52319;BME280;38258;51.148;14.068;2023-04-24T10:49:03;97193.81;;;13.07;100.00
52319;BME280;38258;51.148;14.068;2023-04-24T10:51:48;97188.56;;;13.07;100.00
52319;BME280;38258;51.148;14.068;2023-04-24T10:54:26;97180.34;;;13.13;100.00
52319;BME280;38258;51.148;14.068;2023-04-24T10:56:53;97182.28;;;13.09;100.00
52319;BME280;38258;51.148;14.068;2023-04-24T10:59:41;97188.16;;;14.18;100.00
52319;BME280;38258;51.148;14.068;2023-04-24T11:02:08;97167.53;;;15.08;100.00
52319;BME280;38258;51.148;14.068;2023-04-24T11:04:35;97169.63;;;15.16;100.00
52319;BME280;38258;51.148;14.068;2023-04-24T11:07:02;97175.09;;;15.13;100.00
52319;BME280;38258;51.148;14.068;2023-04-24T11:09:30;97162.25;;;15.21;100.00
52319;BME280;38258;51.148;14.068;2023-04-24T11:12:05;97173.03;;;14.63;100.00
52319;BME280;38258;51.148;14.068;2023-04-24T11:17:33;97184.09;;;14.26;100.00
52319;BME280;38258;51.148;14.068;2023-04-24T11:20:03;97169.34;;;14.24;100.00
52319;BME280;38258;51.148;14.068;2023-04-24T11:22:33;97166.38;;;14.01;100.00
52319;BME280;38258;51.148;14.068;2023-04-24T11:25:02;97176.31;;;13.96;100.00
52319;BME280;38258;51.148;14.068;2023-04-24T11:27:32;97177.25;;;14.09;100.00
52319;BME280;38258;51.148;14.068;2023-04-24T11:30:04;97175.78;;;13.91;100.00
52319;BME280;38258;51.148;14.068;2023-04-24T11:32:37;97183.47;;;13.79;100.00
52319;BME280;38258;51.148;14.068;2023-04-24T11:35:06;97181.22;;;13.59;100.00
52319;BME280;38258;51.148;14.068;2023-04-24T11:37:35;97184.72;;;13.43;100.00
52319;BME280;38258;51.148;14.068;2023-04-24T11:40:03;97182.25;;;13.40;100.00
52319;BME280;38258;51.148;14.068;2023-04-24T11:42:34;97183.50;;;13.34;100.00
52319;BME280;38258;51.148;14.068;2023-04-24T11:45:00;97177.94;;;13.39;100.00
52319;BME280;38258;51.148;14.068;2023-04-24T11:47:28;97186.19;;;13.33;100.00
52319;BME280;38258;51.148;14.068;2023-04-24T11:49:57;97194.59;;;12.93;100.00
52319;BME280;38258;51.148;14.068;2023-04-24T11:52:24;97190.63;;;12.69;100.00
52319;BME280;38258;51.148;14.068;2023-04-24T11:54:51;97185.69;;;12.65;100.00
52319;BME280;38258;51.148;14.068;2023-04-24T11:57:19;97165.84;;;12.75;100.00
52319;BME280;38258;51.148;14.068;2023-04-24T11:59:47;97169.28;;;13.53;100.00
52319;BME280;38258;51.148;14.068;2023-04-24T12:02:21;97169.56;;;13.48;100.00
52319;BME280;38258;51.148;14.068;2023-04-24T12:04:48;97180.75;;;13.66;100.00
52319;BME280;38258;51.148;14.068;2023-04-24T12:07:16;97170.91;;;13.84;100.00
52319;BME280;38258;51.148;14.068;2023-04-24T12:09:44;97171.34;;;13.77;100.00
52319;BME280;38258;51.148;14.068;2023-04-24T12:12:12;97178.66;;;13.57;100.00
52319;BME280;38258;51.148;14.068;2023-04-24T12:14:44;97170.00;;;13.10;100.00
52319;BME280;38258;51.148;14.068;2023-04-24T12:17:11;97169.34;;;13.06;100.00
52319;BME280;38258;51.148;14.068;2023-04-24T12:19:37;97164.94;;;13.07;100.00
52319;BME280;38258;51.148;14.068;2023-04-24T12:22:05;97173.06;;;13.78;100.00
52319;BME280;38258;51.148;14.068;2023-04-24T12:24:34;97166.06;;;14.06;100.00
52319;BME280;38258;51.148;14.068;2023-04-24T12:27:00;97168.09;;;14.44;100.00
52319;BME280;38258;51.148;14.068;2023-04-24T12:29:27;97159.00;;;14.35;100.00
52319;BME280;38258;51.148;14.068;2023-04-24T12:31:54;97143.09;;;14.51;100.00
52319;BME280;38258;51.148;14.068;2023-04-24T12:34:23;97173.50;;;14.13;100.00
52319;BME280;38258;51.148;14.068;2023-04-24T12:36:50;97173.13;;;14.05;100.00
52319;BME280;38258;51.148;14.068;2023-04-24T12:39:18;97180.09;;;13.92;100.00
52319;BME280;38258;51.148;14.068;2023-04-24T12:41:56;97170.88;;;13.70;100.00
52319;BME280;38258;51.148;14.068;2023-04-24T12:44:30;97180.44;;;13.26;100.00
52319;BME280;38258;51.148;14.068;2023-04-24T12:46:57;97176.81;;;12.98;100.00
52319;BME280;38258;51.148;14.068;2023-04-24T12:49:24;97179.75;;;12.77;100.00
52319;BME280;38258;51.148;14.068;2023-04-24T12:51:50;97179.69;;;12.63;100.00
52319;BME280;38258;51.148;14.068;2023-04-24T12:54:17;97187.00;;;12.72;100.00
52319;BME280;38258;51.148;14.068;2023-04-24T12:56:44;97176.56;;;12.86;100.00
52319;BME280;38258;51.148;14.068;2023-04-24T12:59:12;97180.94;;;13.33;100.00
52319;BME280;38258;51.148;14.068;2023-04-24T13:01:38;97175.16;;;13.42;100.00
52319;BME280;38258;51.148;14.068;2023-04-24T13:04:05;97173.06;;;13.33;97.90
52319;BME280;38258;51.148;14.068;2023-04-24T13:06:32;97177.06;;;13.54;94.72
52319;BME280;38258;51.148;14.068;2023-04-24T13:08:59;97158.88;;;13.80;93.84
52319;BME280;38258;51.148;14.068;2023-04-24T13:11:26;97174.16;;;13.88;95.14
52319;BME280;38258;51.148;14.068;2023-04-24T13:13:52;97163.28;;;13.80;87.92
52319;BME280;38258;51.148;14.068;2023-04-24T13:16:20;97160.66;;;13.65;87.33
52319;BME280;38258;51.148;14.068;2023-04-24T13:18:48;97156.97;;;13.82;85.85
52319;BME280;38258;51.148;14.068;2023-04-24T13:21:15;97162.16;;;13.84;85.22
52319;BME280;38258;51.148;14.068;2023-04-24T13:23:42;97146.31;;;14.42;75.63
52319;BME280;38258;51.148;14.068;2023-04-24T13:26:09;97150.72;;;14.69;75.71
52319;BME280;38258;51.148;14.068;2023-04-24T13:28:36;97159.25;;;15.40;68.85
52319;BME280;38258;51.148;14.068;2023-04-24T13:31:03;97147.84;;;15.27;69.17
52319;BME280;38258;51.148;14.068;2023-04-24T13:33:33;97159.22;;;14.18;70.14
52319;BME280;38258;51.148;14.068;2023-04-24T13:35:59;97140.25;;;15.09;66.02
52319;BME280;38258;51.148;14.068;2023-04-24T13:38:26;97146.06;;;15.53;62.31